Datum max min   Außentemperatur Tagesdurchschnitt Außenfeuchte Tagesdurchschnitt Taupunkt Tagesdurchschnitt Windchill Tagesdurchschnitt Windgeschwindigkeit Tagesdurchschnitt   Mindesttemperatur Höchsttemperatur Höchste Windgeschwindigkeit  Tägliche Niederschlagsmenge 
  °C % °C °C km/h   °C °C km/h mm/m²
 
mittelwert
01.01.1975     1025,4 3,0           -0,1 3,9   2,1
02.01.1975     1030,1 4,0           3,5 5,4   0,1
03.01.1975     1027,4 0,8           0,0 3,7   0,1
04.01.1975     1026,6 0,5           -0,7 1,2   0,0
05.01.1975     1023,0 1,5           0,1 2,2   0,1
06.01.1975     1015,5 3,3           1,9 3,9   0,7
07.01.1975     1008,1 0,9           0,4 4,3   3,3
08.01.1975     1012,3 -0,8           -2,4 0,4   0,7
09.01.1975     1021,5 -1,0           -4,7 0,0   0,0
10.01.1975     1020,3 2,0           -0,4 3,0   0,0
11.01.1975     1016,1 3,9           -0,3 5,1   0,0
12.01.1975     1017,8 4,6           3,0 6,7   0,0
13.01.1975     1021,0 2,6           0,7 5,4   1,0
14.01.1975     1017,1 2,5           -0,4 6,5   0,0
15.01.1975     1016,5 0,0           -1,8 3,6   0,0
16.01.1975     1012,1 -0,8           -3,1 1,4   0,0
17.01.1975     1008,2 2,9           -2,6 6,1   1,0
18.01.1975     1005,0 4,9           3,7 5,6   0,1
19.01.1975     1016,3 3,0           2,0 5,1   0,3
20.01.1975     1023,1 0,6           -1,6 2,3   0,0
21.01.1975     1019,9 1,9           0,0 3,3   0,2
22.01.1975     1017,1 2,0           0,9 3,6   3,1
23.01.1975     1008,6 3,0           0,0 3,9   2,6
24.01.1975     1007,9 2,7           1,4 4,4   2,4
25.01.1975     1011,5 3,7           0,9 4,7   5,3
26.01.1975     1019,5 0,5           -0,5 6,4   0,0
27.01.1975     1007,5 0,6           -3,4 2,2   2,3
28.01.1975     1003,4 1,0           0,3 3,4   5,0
29.01.1975     1005,7 -0,2           -1,0 1,5   0,1
30.01.1975     1015,7 2,4           -2,4 3,6   1,4
31.01.1975     1019,4 6,3           3,5 8,3   2,5
01.02.1975     1026,5 4,3           3,3 6,1   0,7
02.02.1975     1028,5 3,7           1,0 4,7   2,7
03.02.1975     1029,8 -0,6           -1,1 4,7   0,1
04.02.1975     1031,5 -1,9           -3,5 0,7   0,2
05.02.1975     1029,7 -2,8           -5,4 1,9   0,1
06.02.1975     1027,1 -0,4           -7,3 7,5   0,0
07.02.1975     1022,5 -2,0           -5,0 5,5   0,0
08.02.1975     1024,6 -1,9           -4,6 1,4   0,0
09.02.1975     1019,5 -2,0           -7,3 5,8   0,0
10.02.1975     1015,8 0,8           -6,9 6,9   0,0
11.02.1975     1011,8 1,9           0,3 6,6   0,7
12.02.1975     1006,2 3,7           -0,6 9,7   0,0
13.02.1975     1003,5 3,4           1,4 4,9   2,9
14.02.1975     1002,9 0,6           0,2 3,7   1,4
15.02.1975     1015,5 -3,1           -3,8 0,2   0,0
16.02.1975     1029,4 -6,0           -8,6 -1,9   0,0
17.02.1975     1027,4 -2,3           -9,6 2,6   0,0
18.02.1975     1023,3 0,2           -1,4 0,8   8,9
19.02.1975     1017,9 -1,0           -1,7 0,8   12,7
20.02.1975     1028,6 -4,0           -6,4 -0,6   0,0
21.02.1975     1031,1 -4,8           -10,8 0,5   0,0
22.02.1975     1029,3 -2,8           -7,6 2,7   0,0
23.02.1975     1029,8 -0,9           -6,7 6,5   0,0
24.02.1975     1027,8 -0,1           -6,0 3,8   0,0
25.02.1975     1029,4 -2,4           -3,1 0,6   0,0
26.02.1975     1034,5 -3,4           -7,0 0,1   0,0
27.02.1975     1029,7 -1,4           -8,5 7,0   0,0
28.02.1975     1019,0 0,0           -6,4 8,5   0,0
01.03.1975     1014,3 0,3           -7,0 8,4   0,0
02.03.1975     1012,1 5,2           -1,6 10,2   0,0
03.03.1975     1009,3 5,5           2,7 10,8   0,0
04.03.1975     1002,1 3,1           0,0 9,1   0,0
05.03.1975     1009,4 4,8           0,7 10,9   0,0
06.03.1975     1015,1 4,7           -0,5 8,1   0,0
07.03.1975     1010,5 4,9           0,4 9,0   2,8
08.03.1975     1007,9 4,5           2,9 9,3   0,0
09.03.1975     1000,1 5,8           -0,1 11,9   0,0
10.03.1975     1002,3 5,3           1,0 9,0   0,0
11.03.1975     1011,9 4,4           3,0 5,5   0,0
12.03.1975     1010,7 4,0           3,5 4,8   1,9
13.03.1975     1011,7 2,3           1,8 3,9   2,2
14.03.1975     1008,7 5,4           1,6 9,5   4,0
15.03.1975     1008,6 3,6           1,9 6,1   0,5
16.03.1975     1009,9 -0,2           -1,5 3,8   4,3
17.03.1975     1011,3 -1,9           -4,1 1,0   0,0
18.03.1975     1009,3 -2,5           -4,0 -1,7   0,7
19.03.1975     1004,6 5,0           -1,7 7,8   1,6
20.03.1975     1013,1 1,7           -0,3 6,5   9,8
21.03.1975     1022,6 -0,7           -2,4 3,0   0,0
22.03.1975     1015,8 -0,6           -6,1 4,6   0,0
23.03.1975     1006,6 -0,5           -4,5 4,1   0,0
24.03.1975     1002,2 -0,2           -4,8 3,0   1,4
25.03.1975     1006,7 -2,0           -3,5 1,0   2,1
26.03.1975     1001,1 -0,8           -2,3 1,4   9,6
27.03.1975     998,1 0,6           -3,1 2,4   4,7
28.03.1975     992,7 1,2           -0,5 3,6   1,6
29.03.1975     1003,3 -0,6           -2,7 3,1   0,0
30.03.1975     1005,9 0,0           -4,4 3,2   0,0
31.03.1975     1007,7 0,0           -1,5 2,3   0,0
01.04.1975     1012,6 1,0           -4,4 6,6   0,0
02.04.1975     1006,5 1,0           -1,4 3,5   0,5
03.04.1975     1001,7 3,0           0,4 5,3   1,1
04.04.1975     1007,1 1,2           0,2 3,9   8,4
05.04.1975     1009,5 -0,8           -2,0 2,1   8,3
06.04.1975     1007,0 -0,7           -4,9 0,5   1,7
07.04.1975     1009,0 1,7           -1,0 5,2   0,0
08.04.1975     1004,7 1,9           0,6 5,5   1,4
09.04.1975     1009,0 0,1           -1,0 3,5   0,0
10.04.1975     1011,1 0,3           -1,5 3,1   0,9
11.04.1975     1015,9 1,0           -2,7 4,8   0,8
12.04.1975     1014,6 8,0           0,0 4,6   3,6
13.04.1975     1016,2 3,2           0,6 8,0   4,3
14.04.1975     1011,7 7,6           2,2 9,0   5,7
15.04.1975     1001,4 7,8           6,3 10,6   10,9
16.04.1975     1008,9 5,8           3,5 7,7   1,5
17.04.1975     1019,5 3,2           1,8 6,8   0,1
18.04.1975     1019,4 5,4           -3,0 11,6   0,0
19.04.1975     1019,7 8,2           0,1 14,5   0,0
20.04.1975     1019,9 7,5           5,6 10,4   0,2
21.04.1975     1021,7 9,3           6,2 13,9   0,0
22.04.1975     1021,1 9,4           3,0 15,4   0,0
23.04.1975     1022,2 10,4           3,3 14,7   0,0
24.04.1975     1022,1 9,0           7,0 14,0   0,0
25.04.1975     1020,1 2,9           1,8 7,0   0,0
26.04.1975     1020,3 5,4           0,2 9,5   0,0
27.04.1975     1021,0 8,3           1,2 14,3   0,0
28.04.1975     1017,7 10,2           1,0 17,3   0,0
29.04.1975     1012,7 13,4           5,4 20,4   0,0
30.04.1975     1017,0 9,7           4,5 19,4   0,0
01.05.1975     1027,7 8,6           2,9 14,0   0,0
02.05.1975     1024,9 10,8           0,3 16,9   1,9
03.05.1975     1017,7 3,8           0,5 10,7   15,0
04.05.1975     1020,9 5,1           2,0 6,3   0,1
05.05.1975     1019,8 6,0           4,0 7,3   0,0
06.05.1975     1016,6 12,0           5,5 15,1   0,0
07.05.1975     1010,3 15,3           11,9 21,3   2,9
08.05.1975     1007,4 10,3           9,4 17,0   19,7
09.05.1975     1009,7 9,4           8,7 14,5   0,0
10.05.1975     1013,4 11,4           5,0 18,0   2,6
11.05.1975     1009,8 12,4           8,5 18,0   3,9
12.05.1975     1011,8 7,0           5,4 11,7   0,2
13.05.1975     1013,1 9,8           -1,1 15,9   0,0
14.05.1975     1011,9 12,8           4,3 18,1   0,0
15.05.1975     1013,3 13,0           9,9 17,1   0,0
16.05.1975     1013,7 14,0           5,9 20,0   2,2
17.05.1975     1016,6 16,4           8,8 22,1   0,0
18.05.1975     1020,9 18,6           11,2 24,5   0,2
19.05.1975     1022,9 14,2           12,1 20,1   0,0
20.05.1975     1021,8 10,9           8,5 16,5   0,0
21.05.1975     1017,8 10,9           3,8 18,5   0,0
22.05.1975     1016,2 6,2           2,9 11,0   0,0
23.05.1975     1015,1 7,1           0,5 12,2   0,0
24.05.1975     1014,6 9,2           4,0 13,4   0,0
25.05.1975     1016,2 10,0           7,0 13,6   0,0
26.05.1975     1018,6 10,1           7,8 13,4   0,0
27.05.1975     1019,9 11,8           8,0 14,0   0,0
28.05.1975     1018,7 14,4           7,6 19,6   0,0
29.05.1975     1009,0 14,9           5,4 21,5   0,7
30.05.1975     1006,6 6,2           4,8 13,2   6,3
31.05.1975     1012,1 6,8           3,8 9,9   0,2
01.06.1975     1013,0 6,3           0,7 10,6   0,0
02.06.1975     1010,6 6,9           -0,4 11,2   0,9
03.06.1975     1009,7 5,8           4,1 11,0   2,7
04.06.1975     1017,9 6,9           3,0 12,5   0,6
05.06.1975     1024,9 7,9           2,9 13,6   0,0
06.06.1975     1026,5 10,8           0,2 16,1   0,0
07.06.1975     1024,9 12,5           3,0 17,6   0,0
08.06.1975     1018,7 14,2           7,4 18,9   5,7
09.06.1975     1012,9 11,7           8,8 14,9   5,0
10.06.1975     1013,3 12,1           10,2 14,8   2,7
11.06.1975     1018,6 14,2           10,0 18,0   0,0
12.06.1975     1018,5 17,0           11,4 22,7   0,0
13.06.1975     1016,1 17,3           11,0 24,1   0,4
14.06.1975     1013,4 17,7           11,3 21,9   0,0
15.06.1975     1007,8 17,5           13,1 24,6   2,1
16.06.1975     1008,1 12,2           10,6 16,0   0,4
17.06.1975     1011,9 14,4           7,4 18,1   4,0
18.06.1975     1016,6 9,0           8,5 14,4   27,4
19.06.1975     1021,3 13,1           8,4 16,8   0,0
20.06.1975     1022,6 15,2           11,5 17,4   3,2
21.06.1975     1018,6 16,1           14,4 19,7   15,3
22.06.1975     1019,5 17,4           15,5 20,5   0,3
23.06.1975     1020,1 17,2           15,0 21,4   1,7
24.06.1975     1016,6 17,6           14,8 24,6   0,4
25.06.1975     1019,9 14,1           12,2 18,4   0,0
26.06.1975     1018,1 16,8           6,1 24,4   0,0
27.06.1975     1018,1 13,8           10,3 19,0   0,0
28.06.1975     1019,4 9,3           8,8 12,1   0,0
29.06.1975     1019,0 10,6           7,7 14,6   15,4
30.06.1975     1018,3 9,0           7,6 11,4   11,3
01.07.1975     1020,2 11,0           7,3 13,6   2,4
02.07.1975     1020,1 13,8           11,0 17,4   0,1
03.07.1975     1018,1 17,9           14,0 22,2   0,0
04.07.1975     1012,2 18,2           11,5 23,3   0,0
05.07.1975     1014,1 17,2           14,0 22,0   0,0
06.07.1975     1017,4 17,4           11,4 22,6   0,0
07.07.1975     1018,9 18,2           10,8 24,2   0,0
08.07.1975     1017,8 19,9           10,5 26,3   0,0
09.07.1975     1017,7 20,9           12,6 26,9   0,0
10.07.1975     1017,4 20,0           14,5 25,5   0,0
11.07.1975     1016,1 16,8           12,4 25,3   8,1
12.07.1975     1017,5 16,4           13,9 20,9   0,7
13.07.1975     1020,5 18,0           12,2 22,5   0,0
14.07.1975     1018,2 22,0           12,3 28,0   1,0
15.07.1975     1017,0 19,4           16,5 24,2   0,0
16.07.1975     1015,4 16,7           12,5 21,5   0,0
17.07.1975     1014,5 16,8           13,5 21,6   2,0
18.07.1975     1011,9 16,6           13,3 25,0   26,0
19.07.1975     1014,9 14,3           12,4 17,9   6,7
20.07.1975     1016,2 14,3           12,7 18,5   0,7
21.07.1975     1014,7 15,5           12,0 18,3   1,4
22.07.1975     1014,9 16,1           12,4 21,3   0,0
23.07.1975     1012,6 18,2           10,7 23,4   0,0
24.07.1975     1011,1 15,8           13,2 19,3   0,5
25.07.1975     1015,9 9,9           7,9 13,9   13,3
26.07.1975     1023,3 11,0           8,0 15,3   0,0
27.07.1975     1022,1 12,8           5,5 17,0   0,0
28.07.1975     1021,3 15,1           10,0 20,4   0,0
29.07.1975     1020,7 17,3           9,4 22,7   0,0
30.07.1975     1021,0 18,3           11,0 25,1   0,0
31.07.1975     1021,9 18,2           11,0 25,0   0,0
01.08.1975     1021,7 19,1           11,4 25,6   2,1
02.08.1975     1023,9 17,2           14,3 22,9   0,0
03.08.1975     1025,1 18,8           10,0 25,3   0,0
04.08.1975     1023,9 18,6           11,1 24,4   0,0
05.08.1975     1021,8 19,0           11,6 25,2   0,0
06.08.1975     1023,7 20,0           12,0 26,0   0,0
07.08.1975     1024,7 20,4           13,1 26,4   0,0
08.08.1975     1021,9 20,3           13,4 26,8   0,0
09.08.1975     1018,3 21,2           14,1 27,2   0,0
10.08.1975     1018,6 21,6           14,0 28,3   0,0
11.08.1975     1018,1 16,4           13,6 27,3   9,2
12.08.1975     1014,6 19,6           12,2 26,5   0,0
13.08.1975     1016,6 17,2           14,8 22,3   0,0
14.08.1975     1017,0 16,6           7,5 24,0   0,0
15.08.1975     1013,4 17,7           10,1 24,7   3,7
16.08.1975     1013,3 17,2           12,5 22,3   0,0
17.08.1975     1011,4 15,9           13,8 19,6   16,5
18.08.1975     1014,3 13,0           11,0 17,5   2,7
19.08.1975     1021,5 14,7           8,7 20,2   0,0
20.08.1975     1021,0 15,8           10,9 18,5   0,1
21.08.1975     1016,3 19,5           14,5 25,5   0,0
22.08.1975     1011,1 17,3           13,4 22,2   59,8
23.08.1975     1014,3 12,7           12,3 15,5   4,1
24.08.1975     1016,7 10,8           9,8 13,0   16,5
25.08.1975     1017,1 10,0           9,4 11,0   11,2
26.08.1975     1023,5 13,8           9,6 17,4   0,0
27.08.1975     1027,0 13,3           8,6 17,7   0,0
28.08.1975     1021,8 14,7           7,9 21,0   0,0
29.08.1975     1015,1 15,4           8,4 22,5   0,0
30.08.1975     1013,1 15,5           10,7 20,5   0,1
31.08.1975     1016,2 15,0           9,4 22,5   1,4
01.09.1975     1019,4 16,7           10,9 22,5   0,4
02.09.1975     1017,0 17,4           10,4 24,3   0,0
03.09.1975     1012,5 18,0           12,0 24,4   0,3
04.09.1975     1014,9 14,0           12,8 20,5   0,8
05.09.1975     1015,3 13,0           11,2 18,5   0,1
06.09.1975     1015,7 13,3           8,8 19,5   0,0
07.09.1975     1017,5 13,4           8,9 17,6   0,0
08.09.1975     1023,4 12,8           9,0 18,7   0,0
09.09.1975     1019,8 14,0           6,6 19,7   0,0
10.09.1975     1016,3 12,8           9,8 20,1   0,0
11.09.1975     1012,3 14,1           8,8 20,5   7,6
12.09.1975     1007,8 11,0           8,3 17,1   7,7
13.09.1975     1011,9 8,5           7,7 12,6   2,8
14.09.1975     1007,1 12,3           7,3 17,7   2,8
15.09.1975     1014,9 12,0           9,7 16,2   2,3
16.09.1975     1021,1 16,8           8,5 24,8   0,2
17.09.1975     1025,5 21,6           15,5 30,0   0,0
18.09.1975     1024,9 20,4           16,2 26,7   0,0
19.09.1975     1025,5 12,8           12,4 18,8   0,0
20.09.1975     1024,9 12,4           11,0 16,3   0,1
21.09.1975     1026,1 12,6           7,4 19,8   0,0
22.09.1975     1029,1 13,0           8,6 18,7   0,0
23.09.1975     1023,4 13,3           5,7 20,5   0,0
24.09.1975     1019,7 12,6           9,1 18,3   0,0
25.09.1975     1010,7 15,5           8,0 20,0   0,0
26.09.1975     1006,3 10,4           8,9 17,4   4,5
27.09.1975     1013,9 13,5           7,3 18,2   0,4
28.09.1975     1020,1 15,8           14,2 20,6   0,5
29.09.1975     1020,7 16,7           13,4 23,4   0,0
30.09.1975     1013,9 17,2           12,6 21,0   0,1
01.10.1975     1018,1 13,0           10,8 16,8   0,2
02.10.1975     1022,5 11,1           9,5 14,4   0,3
03.10.1975     1019,5 12,2           8,4 16,5   5,8
04.10.1975     1024,6 8,7           6,0 12,5   0,0
05.10.1975     1025,3 8,6           6,7 9,4   4,3
06.10.1975     1025,8 9,0           7,4 10,6   1,5
07.10.1975     1022,2 7,6           6,0 10,7   0,8
08.10.1975     1022,1 6,0           4,6 8,3   0,3
09.10.1975     1017,1 4,4           2,7 6,9   2,7
10.10.1975     1016,9 2,2           1,1 5,6   0,0
11.10.1975     1021,1 0,4           -2,0 4,2   0,0
12.10.1975     1019,4 3,0           -3,0 7,3   0,1
13.10.1975     1009,9 5,1           2,8 6,3   8,2
14.10.1975     1012,2 2,2           0,2 5,5   0,1
15.10.1975     1012,3 5,0           0,5 8,7   0,0
16.10.1975     1011,0 7,1           2,6 13,0   0,0
17.10.1975     1007,4 7,5           4,9 8,9   5,9
18.10.1975     1011,9 6,2           5,6 7,8   1,4
19.10.1975     1016,6 6,3           6,1 7,0   3,6
20.10.1975     1018,9 4,6           4,2 6,1   1,5
21.10.1975     1021,0 5,2           4,0 6,2   0,2
22.10.1975     1025,7 5,5           4,4 6,0   0,3
23.10.1975     1028,1 6,4           3,5 11,1   0,0
24.10.1975     1027,5 5,4           3,3 9,7   0,0
25.10.1975     1029,9 5,4           1,6 13,3   0,1
26.10.1975     1030,1 5,6           -3,1 16,9   0,0
27.10.1975     1029,9 6,7           -1,6 18,1   0,0
28.10.1975     1028,5 4,3           -2,1 16,4   0,1
29.10.1975     1025,1 3,7           -1,5 13,5   0,1
30.10.1975     1021,7 4,4           -0,9 11,4   0,0
31.10.1975     1017,5 5,3           -0,8 15,6   0,0
01.11.1975     1014,2 4,0           -0,2 12,9   0,0
02.11.1975     1021,1 3,5           0,2 7,5   0,1
03.11.1975     1024,5 3,8           -1,5 5,5   0,0
04.11.1975     1029,1 3,0           1,3 6,0   0,0
05.11.1975     1026,7 3,8           -0,9 4,8   0,1
06.11.1975     1022,9 3,4           3,1 4,2   0,2
07.11.1975     1022,3 3,3           2,6 5,6   0,1
08.11.1975     1025,1 3,3           1,5 6,3   0,0
09.11.1975     1018,7 1,8           0,6 3,8   3,8
10.11.1975     1017,8 3,9           1,4 5,2   0,0
11.11.1975     1022,5 1,3           -1,5 4,8   0,6
12.11.1975     1021,5 0,4           -2,6 1,8   0,5
13.11.1975     1019,4 2,7           0,9 3,6   0,2
14.11.1975     1022,2 1,2           -2,1 5,6   1,3
15.11.1975     1021,1 -0,2           -2,0 2,4   0,2
16.11.1975     996,7 0,2           -3,4 1,9   1,1
17.11.1975     993,5 0,1           -1,0 1,4   0,0
18.11.1975     997,9 0,2           -0,1 0,9   1,4
19.11.1975     1009,0 1,4           -0,3 2,7   6,3
20.11.1975     1003,0 2,2           0,0 6,2   4,5
21.11.1975     1015,5 -0,5           -2,7 1,5   5,6
22.11.1975     1016,5 -4,0           -5,5 -0,1   4,8
23.11.1975     1025,3 -9,6           -11,5 -3,9   0,1
24.11.1975     1023,5 -9,7           -13,1 -6,0   0,0
25.11.1975     1019,7 -6,4           -14,1 -3,7   0,0
26.11.1975     1013,4 -3,4           -5,8 -1,3   0,0
27.11.1975     1010,2 -1,0           -5,6 0,6   1,6
28.11.1975     1004,6 2,3           -1,1 3,6   5,3
29.11.1975     1003,9 4,2           2,2 7,0   6,2
30.11.1975     1007,1 1,9           0,9 3,3   2,3
01.12.1975     1016,1 0,6           -0,4 1,8   0,1
02.12.1975     1004,9 2,8           -0,5 5,4   12,9
03.12.1975     1011,5 3,1           2,4 5,6   0,5
04.12.1975     1025,1 0,3           -0,6 2,8   0,0
05.12.1975     1024,5 -0,1           -0,7 0,6   1,2
06.12.1975     1019,9 1,9           0,0 4,3   0,2
07.12.1975     1020,9 -0,1           -2,3 0,9   0,2
08.12.1975     1017,9 1,2           0,0 2,2   0,3
09.12.1975     1022,3 -0,5           -2,1 3,1   0,5
10.12.1975     1023,9 -0,8           -4,0 -0,5   1,1
11.12.1975     1024,2 0,8           -0,9 2,0   0,0
12.12.1975     1014,2 -1,1           -1,4 1,1   0,0
13.12.1975     1014,6 -0,9           -1,9 -0,1   1,0
14.12.1975     1025,3 -3,7           -6,7 -1,0   0,5
15.12.1975     1023,5 -4,7           -7,0 -3,1   0,0
16.12.1975     1012,5 -4,4           -4,9 -3,6   0,0
17.12.1975     1006,6 -4,4           -6,9 -3,5   0,7
18.12.1975     1018,6 -9,9           -12,4 -3,6   0,0
19.12.1975     1021,9 -7,2           -16,3 -3,0   0,0
20.12.1975     1028,1 -3,2           -5,3 -1,6   0,1
21.12.1975     1030,5 -1,2           -3,3 -0,6   0,5
22.12.1975     1029,1 0,2           -1,0 0,7   0,0
23.12.1975     1026,7 -0,5           -0,7 0,1   0,0
24.12.1975     1019,7 -0,6           -1,0 0,7   0,8
25.12.1975     1016,7 -0,9           -1,1 -0,6   2,2
26.12.1975     1021,4 0,0           -1,3 0,5   1,3
27.12.1975     1026,1 1,9           0,5 2,3   0,0
28.12.1975     1024,7 0,7           -1,3 1,8   0,0
29.12.1975     1022,7 -2,0           -3,1 0,9   0,0
30.12.1975     1022,5 -1,3           -2,7 -0,5   0,0
31.12.1975     1018,2 0,6           -1,6 1,8   2,6